USTRANSCOM 7510


ETAR
Ramstein Air Force Base
Ramstein, DE
KWRI
Joint Base McGuire Dix Lakehurst
Wrightstown, US

Activity Log

Date Flight Route Aircraft Duration
No Flights Yet

Route Details

Aircraft Information
Primary: Boeing 767-300BDSF
Backup: Boeing 757-200SF
Route Data
Distance: 3394nm
Sched. Duration: 8h 30m
Avg. Duration: 0h 00m (-830m)
Times Flown: 0
Recm'd Route: Not Available
Planned Altitude: 32,000ft
Origin Wx: ETAR 051502Z 23015G21KT 9000 -RA BKN015 OVC024 12/12 A2945 RMK AO2A RAB02 CIG 015V024 CIG 013 RWY08 SLP976 FZRANO $
Dest. Wx: KWRI 051511Z AUTO 25011KT 10SM BKN020 27/21 A2993 RMK AO2 BKN V SCT CIG 018 RWY18 SLP134 $
Notes: USTRANSCOM CONTRACT FLIGHT

Financial History
Total Freight: 0lbs
Average Load: 0lbs/flt
Fuel Used: 0lbs
Avg. Fuel Used: 0lbs/flt
Fuel Expense: $0
Avg. Fuel Expense: $0
Avg. Fuel Cost: $0/lbs
Total Gross Income: $0
Pilot Pay: $0
Total Expenses: $0
Total Revenue: $0
Average Revenue: $0